createdAt,value
2022-09-17T00:00:14.394Z,0.00
2022-09-17T00:01:14.388Z,0.00
2022-09-17T00:02:14.431Z,0.00
2022-09-17T00:03:14.464Z,0.00
2022-09-17T00:04:14.334Z,0.00
2022-09-17T00:05:14.324Z,0.00
2022-09-17T00:06:14.313Z,0.00
2022-09-17T00:07:14.304Z,0.00
2022-09-17T00:08:14.285Z,0.00
2022-09-17T00:09:14.295Z,0.00
2022-09-17T00:10:14.255Z,0.00
2022-09-17T00:11:14.275Z,0.00
2022-09-17T00:12:14.238Z,0.00
2022-09-17T00:13:14.223Z,0.00
2022-09-17T00:14:14.206Z,0.00
2022-09-17T00:15:17.197Z,0.00
2022-09-17T00:16:17.275Z,0.00
2022-09-17T00:17:14.168Z,0.00
2022-09-17T00:18:14.158Z,0.00
2022-09-17T00:19:14.139Z,0.00
2022-09-17T00:20:14.128Z,0.00
2022-09-17T00:21:14.121Z,0.00
2022-09-17T00:22:14.129Z,0.00
2022-09-17T00:23:14.089Z,0.00
2022-09-17T00:24:14.104Z,0.00
2022-09-17T00:25:14.110Z,0.00
2022-09-17T00:26:14.048Z,0.00
2022-09-17T00:27:14.040Z,0.00
2022-09-17T00:28:14.052Z,0.00
2022-09-17T00:29:14.018Z,0.00
2022-09-17T00:30:14.961Z,0.00
2022-09-17T00:31:14.081Z,0.00
2022-09-17T00:32:14.001Z,0.00
2022-09-17T00:33:13.962Z,0.00
2022-09-17T00:34:13.973Z,0.00
2022-09-17T00:35:16.935Z,0.00
2022-09-17T00:36:16.937Z,0.00
2022-09-17T00:37:13.912Z,0.00
2022-09-17T00:38:13.893Z,0.00
2022-09-17T00:39:13.904Z,0.00
2022-09-17T00:40:14.686Z,0.00
2022-09-17T00:41:13.976Z,0.00
2022-09-17T00:42:14.008Z,0.00
2022-09-17T00:43:13.995Z,0.00
2022-09-17T00:44:13.896Z,0.00
2022-09-17T00:45:14.027Z,0.00
2022-09-17T00:46:13.896Z,0.00
2022-09-17T00:47:13.896Z,0.00
2022-09-17T00:48:13.854Z,0.00
2022-09-17T00:49:13.778Z,0.00
2022-09-17T00:50:14.747Z,0.00
2022-09-17T00:51:13.800Z,0.00
2022-09-17T00:52:13.759Z,0.00
2022-09-17T00:53:13.769Z,0.00
2022-09-17T00:54:13.749Z,0.00
2022-09-17T00:55:17.673Z,0.00
2022-09-17T00:56:16.686Z,0.00
2022-09-17T00:57:13.649Z,0.00
2022-09-17T00:58:13.639Z,0.00
2022-09-17T00:59:13.664Z,0.00
2022-09-17T01:00:14.371Z,0.00
2022-09-17T01:01:13.661Z,0.00
2022-09-17T01:02:13.631Z,0.00
2022-09-17T01:03:13.572Z,0.00
2022-09-17T01:04:13.566Z,0.00
2022-09-17T01:05:14.291Z,0.00
2022-09-17T01:06:13.738Z,0.00
2022-09-17T01:07:13.573Z,0.00
2022-09-17T01:08:13.582Z,0.00
2022-09-17T01:09:13.532Z,0.00
2022-09-17T01:10:14.222Z,0.00
2022-09-17T01:11:13.472Z,0.00
2022-09-17T01:12:13.453Z,0.00
2022-09-17T01:13:13.445Z,0.00
2022-09-17T01:14:13.454Z,0.00
2022-09-17T01:15:17.440Z,0.00
2022-09-17T01:16:16.642Z,0.00
2022-09-17T01:17:13.556Z,0.00
2022-09-17T01:18:13.455Z,0.00
2022-09-17T01:19:13.374Z,0.00
2022-09-17T01:20:13.396Z,0.00
2022-09-17T01:21:13.407Z,0.00
2022-09-17T01:22:13.709Z,0.00
2022-09-17T01:23:13.430Z,0.00
2022-09-17T01:24:13.326Z,0.00
2022-09-17T01:25:13.451Z,0.00
2022-09-17T01:26:13.277Z,0.00
2022-09-17T01:27:13.271Z,0.00
2022-09-17T01:28:13.268Z,0.00
2022-09-17T01:29:13.238Z,0.00
2022-09-17T01:30:13.983Z,0.00
2022-09-17T01:31:13.250Z,0.00
2022-09-17T01:32:13.278Z,0.00
2022-09-17T01:33:13.249Z,0.00
2022-09-17T01:34:13.209Z,0.00
2022-09-17T01:35:17.629Z,0.00
2022-09-17T01:36:16.189Z,0.00
2022-09-17T01:37:13.130Z,0.00
2022-09-17T01:38:13.132Z,0.00
2022-09-17T01:39:13.136Z,0.00
2022-09-17T01:40:13.119Z,0.00
2022-09-17T01:41:13.084Z,0.00
2022-09-17T01:42:13.074Z,0.00
2022-09-17T01:43:13.063Z,0.00
2022-09-17T01:44:13.093Z,0.00
2022-09-17T01:45:13.037Z,0.00
2022-09-17T01:46:13.070Z,0.00
2022-09-17T01:47:14.279Z,0.00
2022-09-17T01:48:12.986Z,0.00
2022-09-17T01:49:12.984Z,0.00
2022-09-17T01:50:13.015Z,0.00
2022-09-17T01:51:12.957Z,0.00
2022-09-17T01:52:12.936Z,0.00
2022-09-17T01:53:12.929Z,0.00
2022-09-17T01:54:12.906Z,0.00
2022-09-17T01:55:16.667Z,0.00
2022-09-17T01:56:15.927Z,0.00
2022-09-17T01:57:12.877Z,0.00
2022-09-17T01:58:12.849Z,0.00
2022-09-17T01:59:12.838Z,0.00
2022-09-17T02:00:12.829Z,0.00
2022-09-17T02:01:12.921Z,0.00
2022-09-17T02:02:12.860Z,0.00
2022-09-17T02:03:12.816Z,0.00
2022-09-17T02:04:12.781Z,0.00
2022-09-17T02:05:12.768Z,0.00
2022-09-17T02:06:12.749Z,0.00
2022-09-17T02:07:12.910Z,0.00
2022-09-17T02:08:12.730Z,0.00
2022-09-17T02:09:15.473Z,0.00
2022-09-17T02:10:12.705Z,0.00
2022-09-17T02:11:12.688Z,0.00
2022-09-17T02:12:12.660Z,0.00
2022-09-17T02:13:12.692Z,0.00
2022-09-17T02:14:12.641Z,0.00
2022-09-17T02:15:15.622Z,0.00
2022-09-17T02:16:15.665Z,0.00
2022-09-17T02:17:12.631Z,0.00
2022-09-17T02:18:12.582Z,0.00
2022-09-17T02:19:12.574Z,0.00
2022-09-17T02:20:12.563Z,0.00
2022-09-17T02:21:12.543Z,0.00
2022-09-17T02:22:12.554Z,0.00
2022-09-17T02:23:12.524Z,0.00
2022-09-17T02:24:12.508Z,0.00
2022-09-17T02:25:12.494Z,0.00
2022-09-17T02:26:12.475Z,0.00
2022-09-17T02:27:12.496Z,0.00
2022-09-17T02:28:12.455Z,0.00
2022-09-17T02:29:12.456Z,0.00
2022-09-17T02:30:12.426Z,0.00
2022-09-17T02:31:12.459Z,0.00
2022-09-17T02:32:12.447Z,0.00
2022-09-17T02:33:12.430Z,0.00
2022-09-17T02:34:12.388Z,0.00
2022-09-17T02:35:15.377Z,0.00
2022-09-17T02:36:15.378Z,0.00
2022-09-17T02:37:12.347Z,0.00
2022-09-17T02:38:12.357Z,0.00
2022-09-17T02:39:12.339Z,0.00
2022-09-17T02:40:12.338Z,0.00
2022-09-17T02:41:12.298Z,0.00
2022-09-17T02:42:12.282Z,0.00
2022-09-17T02:43:12.284Z,0.00
2022-09-17T02:44:12.280Z,0.00
2022-09-17T02:45:12.250Z,0.00
2022-09-17T02:46:12.255Z,0.00
2022-09-17T02:47:12.221Z,0.00
2022-09-17T02:48:12.202Z,0.00
2022-09-17T02:49:12.212Z,0.00
2022-09-17T02:50:12.172Z,0.00
2022-09-17T02:51:12.172Z,0.00
2022-09-17T02:52:12.142Z,0.00
2022-09-17T02:53:12.164Z,0.00
2022-09-17T02:54:12.127Z,0.00
2022-09-17T02:55:15.133Z,0.00
2022-09-17T02:56:15.103Z,0.00
2022-09-17T02:57:12.082Z,0.00
2022-09-17T02:58:12.077Z,0.00
2022-09-17T02:59:12.055Z,0.00
2022-09-17T03:00:12.041Z,0.00
2022-09-17T03:01:12.156Z,0.00
2022-09-17T03:02:12.081Z,0.00
2022-09-17T03:03:12.017Z,0.00
2022-09-17T03:04:11.986Z,0.00
2022-09-17T03:05:12.012Z,0.00
2022-09-17T03:06:11.986Z,0.00
2022-09-17T03:07:11.951Z,0.00
2022-09-17T03:08:11.937Z,0.00
2022-09-17T03:09:11.929Z,0.00
2022-09-17T03:10:11.908Z,0.00
2022-09-17T03:11:11.953Z,0.00
2022-09-17T03:12:11.882Z,0.00
2022-09-17T03:13:11.871Z,0.00
2022-09-17T03:14:11.856Z,0.00
2022-09-17T03:15:14.850Z,0.00
2022-09-17T03:16:14.930Z,0.00
2022-09-17T03:17:11.819Z,0.00
2022-09-17T03:18:11.809Z,0.00
2022-09-17T03:19:11.789Z,0.00
2022-09-17T03:20:11.785Z,0.00
2022-09-17T03:21:11.789Z,0.00
2022-09-17T03:22:11.750Z,0.00
2022-09-17T03:23:11.893Z,0.00
2022-09-17T03:24:11.736Z,0.00
2022-09-17T03:25:11.712Z,0.00
2022-09-17T03:26:11.702Z,0.00
2022-09-17T03:27:11.683Z,0.00
2022-09-17T03:28:11.684Z,0.00
2022-09-17T03:29:11.683Z,0.00
2022-09-17T03:30:11.674Z,0.00
2022-09-17T03:31:11.774Z,0.00
2022-09-17T03:32:11.635Z,0.00
2022-09-17T03:33:11.605Z,0.00
2022-09-17T03:34:11.776Z,0.00
2022-09-17T03:35:14.586Z,0.00
2022-09-17T03:36:14.585Z,0.00
2022-09-17T03:37:11.559Z,0.00
2022-09-17T03:38:11.546Z,0.00
2022-09-17T03:39:11.537Z,0.00
2022-09-17T03:40:11.586Z,0.00
2022-09-17T03:41:11.510Z,0.00
2022-09-17T03:42:11.490Z,0.00
2022-09-17T03:43:11.477Z,0.00
2022-09-17T03:44:11.467Z,0.00
2022-09-17T03:45:11.482Z,0.00
2022-09-17T03:46:11.525Z,0.00
2022-09-17T03:47:11.430Z,0.00
2022-09-17T03:48:11.418Z,0.00
2022-09-17T03:49:11.400Z,0.00
2022-09-17T03:50:11.418Z,0.00
2022-09-17T03:51:11.394Z,0.00
2022-09-17T03:52:11.360Z,0.00
2022-09-17T03:53:11.354Z,0.00
2022-09-17T03:54:11.336Z,0.00
2022-09-17T03:55:14.341Z,0.00
2022-09-17T03:56:14.342Z,0.00
2022-09-17T03:57:11.298Z,0.00
2022-09-17T03:58:11.283Z,0.00
2022-09-17T03:59:11.262Z,0.00
2022-09-17T04:00:11.283Z,0.00
2022-09-17T04:01:11.360Z,0.00
2022-09-17T04:02:11.369Z,0.00
2022-09-17T04:03:11.215Z,0.00
2022-09-17T04:04:11.202Z,0.00
2022-09-17T04:05:11.214Z,0.00
2022-09-17T04:06:11.235Z,0.00
2022-09-17T04:07:11.170Z,0.00
2022-09-17T04:08:11.147Z,0.00
2022-09-17T04:09:11.125Z,0.00
2022-09-17T04:10:11.116Z,0.00
2022-09-17T04:11:11.115Z,0.00
2022-09-17T04:12:11.287Z,0.00
2022-09-17T04:13:11.076Z,0.00
2022-09-17T04:14:11.074Z,0.00
2022-09-17T04:15:14.048Z,0.00
2022-09-17T04:16:14.118Z,0.00
2022-09-17T04:17:11.018Z,0.00
2022-09-17T04:18:11.172Z,0.00
2022-09-17T04:19:10.998Z,0.00
2022-09-17T04:20:10.992Z,0.00
2022-09-17T04:21:10.978Z,0.00
2022-09-17T04:22:10.960Z,0.00
2022-09-17T04:23:10.952Z,0.00
2022-09-17T04:24:10.960Z,0.00
2022-09-17T04:25:10.919Z,0.00
2022-09-17T04:26:10.910Z,0.00
2022-09-17T04:27:10.901Z,0.00
2022-09-17T04:28:10.903Z,0.00
2022-09-17T04:29:10.861Z,0.00
2022-09-17T04:30:10.881Z,0.00
2022-09-17T04:31:10.874Z,0.00
2022-09-17T04:32:10.824Z,0.00
2022-09-17T04:33:10.810Z,0.00
2022-09-17T04:34:10.804Z,0.00
2022-09-17T04:35:13.812Z,0.00
2022-09-17T04:36:13.784Z,0.00
2022-09-17T04:37:10.754Z,0.00
2022-09-17T04:38:10.743Z,0.00
2022-09-17T04:39:10.735Z,0.00
2022-09-17T04:40:10.822Z,0.00
2022-09-17T04:41:10.704Z,0.00
2022-09-17T04:42:10.694Z,0.00
2022-09-17T04:43:10.677Z,0.00
2022-09-17T04:44:10.669Z,0.00
2022-09-17T04:45:10.646Z,0.00
2022-09-17T04:46:10.704Z,0.00
2022-09-17T04:47:10.652Z,0.00
2022-09-17T04:48:10.609Z,0.00
2022-09-17T04:49:10.597Z,0.00
2022-09-17T04:50:10.607Z,0.00
2022-09-17T04:51:10.568Z,0.00
2022-09-17T04:52:10.583Z,0.00
2022-09-17T04:53:10.539Z,0.00
2022-09-17T04:54:10.529Z,0.00
2022-09-17T04:55:13.508Z,0.00
2022-09-17T04:56:13.584Z,0.00
2022-09-17T04:57:10.490Z,0.00
2022-09-17T04:58:10.470Z,0.00
2022-09-17T04:59:10.451Z,0.00
2022-09-17T05:00:10.443Z,0.00
2022-09-17T05:01:10.478Z,0.00
2022-09-17T05:02:10.529Z,0.00
2022-09-17T05:03:10.420Z,5.62
2022-09-17T05:04:10.390Z,5.62
2022-09-17T05:05:10.382Z,5.62
2022-09-17T05:06:10.412Z,5.62
2022-09-17T05:07:13.362Z,5.62
2022-09-17T05:08:10.342Z,11.25
2022-09-17T05:09:10.321Z,11.25
2022-09-17T05:10:10.305Z,11.25
2022-09-17T05:11:10.293Z,11.25
2022-09-17T05:12:10.314Z,11.25
2022-09-17T05:13:10.264Z,11.25
2022-09-17T05:14:10.246Z,11.25
2022-09-17T05:15:13.234Z,11.25
2022-09-17T05:16:13.297Z,16.88
2022-09-17T05:17:10.235Z,16.88
2022-09-17T05:18:10.211Z,16.88
2022-09-17T05:19:10.184Z,16.88
2022-09-17T05:20:10.202Z,16.88
2022-09-17T05:21:10.159Z,16.88
2022-09-17T05:22:10.146Z,22.50
2022-09-17T05:23:10.144Z,22.50
2022-09-17T05:24:10.138Z,22.50
2022-09-17T05:25:10.119Z,28.12
2022-09-17T05:26:10.096Z,28.12
2022-09-17T05:27:10.078Z,28.12
2022-09-17T05:28:10.068Z,28.12
2022-09-17T05:29:10.079Z,28.12
2022-09-17T05:30:10.046Z,33.75
2022-09-17T05:31:10.075Z,33.75
2022-09-17T05:32:10.000Z,33.75
2022-09-17T05:33:10.001Z,39.38
2022-09-17T05:34:10.020Z,39.38
2022-09-17T05:35:12.970Z,45.00
2022-09-17T05:36:13.001Z,45.00
2022-09-17T05:37:09.941Z,50.62
2022-09-17T05:38:09.929Z,61.88
2022-09-17T05:39:09.902Z,90.00
2022-09-17T05:40:09.956Z,112.50
2022-09-17T05:41:09.913Z,129.38
2022-09-17T05:42:09.869Z,123.75
2022-09-17T05:43:09.858Z,112.50
2022-09-17T05:44:09.844Z,101.25
2022-09-17T05:45:09.835Z,101.25
2022-09-17T05:46:09.850Z,95.62
2022-09-17T05:47:09.802Z,90.00
2022-09-17T05:48:09.784Z,78.75
2022-09-17T05:49:09.774Z,67.50
2022-09-17T05:50:09.768Z,73.12
2022-09-17T05:51:09.776Z,67.50
2022-09-17T05:52:09.735Z,61.88
2022-09-17T05:53:09.715Z,56.25
2022-09-17T05:54:09.707Z,50.62
2022-09-17T05:55:12.706Z,50.62
2022-09-17T05:56:12.725Z,50.62
2022-09-17T05:57:09.668Z,50.62
2022-09-17T05:58:09.686Z,56.25
2022-09-17T05:59:09.663Z,61.88
2022-09-17T06:00:09.638Z,67.50
2022-09-17T06:01:09.648Z,78.75
2022-09-17T06:02:09.638Z,78.75
2022-09-17T06:03:09.739Z,78.75
2022-09-17T06:04:09.579Z,78.75
2022-09-17T06:05:09.582Z,78.75
2022-09-17T06:06:09.580Z,84.38
2022-09-17T06:07:09.569Z,90.00
2022-09-17T06:08:09.535Z,95.62
2022-09-17T06:09:09.538Z,95.62
2022-09-17T06:10:09.501Z,95.62
2022-09-17T06:11:09.481Z,95.62
2022-09-17T06:12:09.501Z,95.62
2022-09-17T06:13:09.474Z,95.62
2022-09-17T06:14:09.451Z,90.00
2022-09-17T06:15:12.433Z,84.38
2022-09-17T06:16:12.484Z,84.38
2022-09-17T06:17:09.463Z,84.38
2022-09-17T06:18:09.403Z,90.00
2022-09-17T06:19:09.383Z,90.00
2022-09-17T06:20:09.379Z,101.25
2022-09-17T06:21:09.359Z,106.88
2022-09-17T06:22:09.344Z,106.88
2022-09-17T06:23:13.950Z,106.88
2022-09-17T06:24:10.326Z,106.88
2022-09-17T06:25:09.304Z,106.88
2022-09-17T06:26:09.297Z,112.50
2022-09-17T06:27:09.306Z,106.88
2022-09-17T06:28:09.267Z,106.88
2022-09-17T06:29:09.259Z,106.88
2022-09-17T06:30:09.241Z,112.50
2022-09-17T06:31:09.252Z,118.12
2022-09-17T06:32:09.237Z,123.75
2022-09-17T06:33:09.198Z,135.00
2022-09-17T06:34:09.190Z,151.88
2022-09-17T06:35:12.168Z,151.88
2022-09-17T06:36:13.911Z,129.38
2022-09-17T06:37:09.170Z,123.75
2022-09-17T06:38:09.130Z,112.50
2022-09-17T06:39:09.109Z,123.75
2022-09-17T06:40:09.174Z,129.38
2022-09-17T06:41:09.088Z,129.38
2022-09-17T06:42:09.070Z,123.75
2022-09-17T06:43:09.079Z,123.75
2022-09-17T06:44:09.075Z,123.75
2022-09-17T06:45:13.267Z,123.75
2022-09-17T06:46:10.074Z,123.75
2022-09-17T06:47:09.028Z,118.12
2022-09-17T06:48:08.986Z,95.62
2022-09-17T06:49:08.963Z,95.62
2022-09-17T06:50:08.955Z,95.62
2022-09-17T06:51:08.933Z,90.00
2022-09-17T06:52:08.964Z,90.00
2022-09-17T06:53:08.914Z,90.00
2022-09-17T06:54:08.905Z,90.00
2022-09-17T06:55:11.893Z,95.62
2022-09-17T06:56:11.892Z,106.88
2022-09-17T06:57:08.914Z,118.12
2022-09-17T06:58:08.841Z,123.75
2022-09-17T06:59:08.826Z,123.75
2022-09-17T07:00:08.818Z,129.38
2022-09-17T07:01:08.816Z,129.38
2022-09-17T07:02:08.838Z,135.00
2022-09-17T07:03:08.797Z,163.12
2022-09-17T07:04:08.784Z,185.62
2022-09-17T07:05:08.738Z,208.12
2022-09-17T07:06:08.843Z,180.00
2022-09-17T07:07:08.710Z,118.12
2022-09-17T07:08:08.752Z,84.38
2022-09-17T07:09:10.989Z,61.88
2022-09-17T07:10:08.740Z,45.00
2022-09-17T07:11:08.710Z,39.38
2022-09-17T07:12:08.801Z,33.75
2022-09-17T07:13:08.649Z,28.12
2022-09-17T07:14:08.660Z,28.12
2022-09-17T07:15:11.601Z,22.50
2022-09-17T07:16:11.681Z,22.50
2022-09-17T07:17:08.561Z,22.50
2022-09-17T07:18:08.559Z,28.12
2022-09-17T07:19:09.111Z,39.38
2022-09-17T07:20:08.558Z,45.00
2022-09-17T07:21:08.513Z,45.00
2022-09-17T07:22:08.583Z,50.62
2022-09-17T07:23:08.483Z,56.25
2022-09-17T07:24:08.474Z,56.25
2022-09-17T07:25:08.483Z,50.62
2022-09-17T07:26:08.455Z,50.62
2022-09-17T07:27:08.592Z,50.62
2022-09-17T07:28:08.426Z,50.62
2022-09-17T07:29:08.416Z,50.62
2022-09-17T07:30:08.404Z,50.62
2022-09-17T07:31:12.408Z,50.62
2022-09-17T07:32:09.438Z,56.25
2022-09-17T07:33:08.357Z,61.88
2022-09-17T07:34:08.348Z,61.88
2022-09-17T07:35:11.338Z,61.88
2022-09-17T07:36:11.327Z,56.25
2022-09-17T07:37:08.308Z,56.25
2022-09-17T07:38:08.320Z,56.25
2022-09-17T07:39:08.277Z,45.00
2022-09-17T07:40:08.362Z,39.38
2022-09-17T07:41:08.296Z,45.00
2022-09-17T07:42:08.241Z,45.00
2022-09-17T07:43:08.229Z,45.00
2022-09-17T07:44:08.222Z,56.25
2022-09-17T07:45:08.211Z,56.25
2022-09-17T07:46:08.234Z,61.88
2022-09-17T07:47:08.203Z,61.88
2022-09-17T07:48:08.164Z,61.88
2022-09-17T07:49:08.158Z,67.50
2022-09-17T07:50:08.163Z,67.50
2022-09-17T07:51:08.863Z,67.50
2022-09-17T07:52:08.114Z,73.12
2022-09-17T07:53:08.133Z,73.12
2022-09-17T07:54:08.090Z,78.75
2022-09-17T07:55:11.078Z,84.38
2022-09-17T07:56:11.978Z,84.38
2022-09-17T07:57:08.056Z,90.00
2022-09-17T07:58:08.036Z,90.00
2022-09-17T07:59:08.057Z,90.00
2022-09-17T08:00:08.016Z,90.00
2022-09-17T08:01:07.996Z,95.62
2022-09-17T08:02:08.093Z,95.62
2022-09-17T08:03:08.032Z,95.62
2022-09-17T08:04:07.961Z,95.62
2022-09-17T08:05:07.948Z,101.25
2022-09-17T08:06:07.927Z,106.88
2022-09-17T08:07:07.938Z,123.75
2022-09-17T08:08:07.909Z,135.00
2022-09-17T08:09:07.918Z,140.62
2022-09-17T08:10:07.877Z,146.25
2022-09-17T08:11:07.862Z,151.88
2022-09-17T08:12:07.849Z,151.88
2022-09-17T08:13:07.868Z,151.88
2022-09-17T08:14:07.820Z,163.12
2022-09-17T08:15:10.801Z,168.75
2022-09-17T08:16:10.828Z,180.00
2022-09-17T08:17:07.831Z,185.62
2022-09-17T08:18:07.760Z,196.88
2022-09-17T08:19:07.742Z,208.12
2022-09-17T08:20:07.731Z,208.12
2022-09-17T08:21:07.730Z,219.38
2022-09-17T08:22:07.702Z,225.00
2022-09-17T08:23:07.721Z,230.62
2022-09-17T08:24:07.683Z,230.62
2022-09-17T08:25:07.668Z,230.62
2022-09-17T08:26:07.645Z,230.62
2022-09-17T08:27:07.664Z,230.62
2022-09-17T08:28:07.622Z,225.00
2022-09-17T08:29:07.623Z,213.75
2022-09-17T08:30:07.626Z,208.12
2022-09-17T08:31:07.668Z,168.75
2022-09-17T08:32:07.596Z,157.50
2022-09-17T08:33:07.558Z,146.25
2022-09-17T08:34:07.539Z,123.75
2022-09-17T08:35:10.560Z,90.00
2022-09-17T08:36:10.530Z,84.38
2022-09-17T08:37:07.529Z,84.38
2022-09-17T08:38:07.487Z,73.12
2022-09-17T08:39:07.478Z,67.50
2022-09-17T08:40:07.559Z,56.25
2022-09-17T08:41:07.451Z,56.25
2022-09-17T08:42:07.489Z,45.00
2022-09-17T08:43:07.422Z,39.38
2022-09-17T08:44:07.404Z,39.38
2022-09-17T08:45:07.390Z,33.75
2022-09-17T08:46:07.411Z,33.75
2022-09-17T08:47:07.363Z,28.12
2022-09-17T08:48:07.389Z,28.12
2022-09-17T08:49:07.335Z,28.12
2022-09-17T08:50:07.322Z,22.50
2022-09-17T08:51:08.608Z,28.12
2022-09-17T08:52:07.293Z,28.12
2022-09-17T08:53:07.284Z,33.75
2022-09-17T08:54:07.263Z,45.00
2022-09-17T08:55:10.254Z,50.62
2022-09-17T08:56:10.282Z,61.88
2022-09-17T08:57:07.254Z,73.12
2022-09-17T08:58:07.386Z,78.75
2022-09-17T08:59:07.205Z,84.38
2022-09-17T09:00:07.260Z,84.38
2022-09-17T09:01:07.184Z,84.38
2022-09-17T09:02:07.295Z,90.00
2022-09-17T09:03:07.153Z,90.00
2022-09-17T09:04:07.176Z,84.38
2022-09-17T09:05:07.117Z,78.75
2022-09-17T09:06:10.694Z,78.75
2022-09-17T09:07:07.097Z,78.75
2022-09-17T09:08:07.088Z,73.12
2022-09-17T09:09:07.067Z,78.75
2022-09-17T09:10:07.107Z,78.75
2022-09-17T09:11:07.040Z,84.38
2022-09-17T09:12:07.029Z,90.00
2022-09-17T09:13:07.019Z,90.00
2022-09-17T09:14:07.032Z,101.25
2022-09-17T09:15:10.001Z,112.50
2022-09-17T09:16:10.065Z,112.50
2022-09-17T09:17:06.970Z,106.88
2022-09-17T09:18:06.960Z,95.62
2022-09-17T09:19:10.257Z,78.75
2022-09-17T09:20:07.921Z,67.50
2022-09-17T09:21:07.891Z,56.25
2022-09-17T09:22:06.922Z,45.00
2022-09-17T09:23:06.892Z,39.38
2022-09-17T09:24:06.881Z,39.38
2022-09-17T09:25:06.902Z,39.38
2022-09-17T09:26:07.844Z,45.00
2022-09-17T09:27:06.883Z,45.00
2022-09-17T09:28:06.837Z,50.62
2022-09-17T09:29:06.823Z,56.25
2022-09-17T09:30:06.844Z,61.88
2022-09-17T09:31:07.583Z,56.25
2022-09-17T09:32:15.476Z,45.00
2022-09-17T09:33:07.768Z,39.38
2022-09-17T09:34:06.754Z,33.75
2022-09-17T09:35:09.750Z,28.12
2022-09-17T09:36:09.753Z,28.12
2022-09-17T09:37:06.758Z,22.50
2022-09-17T09:38:06.997Z,22.50
2022-09-17T09:39:06.687Z,16.88
2022-09-17T09:40:06.789Z,16.88
2022-09-17T09:41:07.647Z,11.25
2022-09-17T09:42:06.718Z,11.25
2022-09-17T09:43:06.640Z,11.25
2022-09-17T09:44:06.630Z,11.25
2022-09-17T09:45:06.671Z,11.25
2022-09-17T09:46:08.260Z,16.88
2022-09-17T09:47:07.209Z,16.88
2022-09-17T09:48:10.936Z,16.88
2022-09-17T09:49:07.060Z,22.50
2022-09-17T09:50:06.594Z,22.50
2022-09-17T09:51:07.515Z,22.50
2022-09-17T09:52:06.550Z,22.50
2022-09-17T09:53:06.501Z,22.50
2022-09-17T09:54:06.500Z,22.50
2022-09-17T09:55:09.479Z,22.50
2022-09-17T09:56:10.464Z,28.12
2022-09-17T09:57:06.493Z,33.75
2022-09-17T09:58:06.502Z,39.38
2022-09-17T09:59:06.463Z,39.38
2022-09-17T10:00:06.437Z,45.00
2022-09-17T10:01:07.382Z,56.25
2022-09-17T10:02:06.613Z,61.88
2022-09-17T10:03:06.450Z,61.88
2022-09-17T10:04:06.357Z,61.88
2022-09-17T10:05:06.505Z,61.88
2022-09-17T10:06:06.566Z,61.88
2022-09-17T10:07:06.515Z,67.50
2022-09-17T10:08:06.337Z,67.50
2022-09-17T10:09:06.336Z,67.50
2022-09-17T10:10:06.310Z,67.50
2022-09-17T10:11:06.366Z,78.75
2022-09-17T10:12:06.446Z,84.38
2022-09-17T10:13:06.308Z,112.50
2022-09-17T10:14:09.739Z,168.75
2022-09-17T10:15:09.218Z,180.00
2022-09-17T10:16:10.024Z,146.25
2022-09-17T10:17:06.199Z,163.12
2022-09-17T10:18:06.375Z,208.12
2022-09-17T10:19:06.518Z,230.62
2022-09-17T10:20:06.154Z,225.00
2022-09-17T10:21:06.882Z,219.38
2022-09-17T10:22:06.139Z,208.12
2022-09-17T10:23:06.129Z,180.00
2022-09-17T10:24:06.082Z,196.88
2022-09-17T10:25:06.075Z,208.12
2022-09-17T10:26:06.080Z,236.25
2022-09-17T10:27:06.072Z,253.12
2022-09-17T10:28:06.071Z,247.50
2022-09-17T10:29:06.024Z,247.50
2022-09-17T10:30:06.011Z,241.88
2022-09-17T10:31:08.950Z,191.25
2022-09-17T10:32:06.002Z,163.12
2022-09-17T10:33:06.016Z,135.00
2022-09-17T10:34:06.038Z,101.25
2022-09-17T10:35:08.934Z,78.75
2022-09-17T10:36:09.697Z,78.75
2022-09-17T10:37:05.942Z,106.88
2022-09-17T10:38:05.893Z,112.50
2022-09-17T10:39:05.907Z,123.75
2022-09-17T10:40:05.892Z,146.25
2022-09-17T10:41:05.855Z,163.12
2022-09-17T10:42:05.835Z,168.75
2022-09-17T10:43:05.819Z,157.50
2022-09-17T10:44:05.827Z,146.25
2022-09-17T10:45:05.817Z,140.62
2022-09-17T10:46:05.856Z,129.38
2022-09-17T10:47:05.899Z,135.00
2022-09-17T10:48:05.748Z,135.00
2022-09-17T10:49:05.761Z,129.38
2022-09-17T10:50:05.716Z,129.38
2022-09-17T10:51:05.730Z,123.75
2022-09-17T10:52:05.691Z,123.75
2022-09-17T10:53:05.682Z,112.50
2022-09-17T10:54:05.659Z,112.50
2022-09-17T10:55:08.671Z,95.62
2022-09-17T10:56:08.645Z,78.75
2022-09-17T10:57:05.628Z,61.88
2022-09-17T10:58:05.601Z,56.25
2022-09-17T10:59:07.041Z,56.25
2022-09-17T11:00:05.652Z,50.62
2022-09-17T11:01:05.562Z,45.00
2022-09-17T11:02:05.660Z,56.25
2022-09-17T11:03:05.532Z,67.50
2022-09-17T11:04:05.514Z,67.50
2022-09-17T11:05:05.622Z,73.12
2022-09-17T11:06:05.516Z,84.38
2022-09-17T11:07:06.459Z,90.00
2022-09-17T11:08:05.464Z,84.38
2022-09-17T11:09:05.460Z,90.00
2022-09-17T11:10:05.444Z,101.25
2022-09-17T11:11:05.445Z,95.62
2022-09-17T11:12:05.455Z,84.38
2022-09-17T11:13:05.394Z,78.75
2022-09-17T11:14:05.379Z,78.75
2022-09-17T11:15:08.373Z,95.62
2022-09-17T11:16:08.563Z,123.75
2022-09-17T11:17:05.339Z,129.38
2022-09-17T11:22:50.637Z,95.62
2022-09-17T11:23:49.306Z,78.75
2022-09-17T11:24:49.150Z,67.50
2022-09-17T11:25:49.128Z,50.62
2022-09-17T11:26:49.112Z,33.75
2022-09-17T11:27:49.115Z,33.75
2022-09-17T11:28:49.139Z,33.75
2022-09-17T11:29:49.065Z,33.75
2022-09-17T11:30:49.060Z,28.12
2022-09-17T11:31:49.106Z,22.50
2022-09-17T11:32:49.023Z,22.50
2022-09-17T11:33:49.013Z,16.88
2022-09-17T11:34:49.038Z,16.88
2022-09-17T11:35:49.003Z,16.88
2022-09-17T11:36:48.983Z,16.88
2022-09-17T11:37:48.965Z,16.88
2022-09-17T11:38:49.025Z,16.88
2022-09-17T11:39:48.943Z,16.88
2022-09-17T11:40:48.945Z,16.88
2022-09-17T11:41:51.917Z,16.88
2022-09-17T11:42:51.915Z,16.88
2022-09-17T11:43:48.878Z,16.88
2022-09-17T11:44:48.876Z,16.88
2022-09-17T11:45:48.886Z,22.50
2022-09-17T11:46:49.057Z,22.50
2022-09-17T11:47:48.831Z,16.88
2022-09-17T11:48:48.816Z,28.12
2022-09-17T11:49:48.810Z,28.12
2022-09-17T11:50:48.856Z,28.12
2022-09-17T11:51:48.778Z,22.50
2022-09-17T11:52:48.800Z,22.50
2022-09-17T11:53:48.739Z,22.50
2022-09-17T11:54:48.745Z,22.50
2022-09-17T11:55:48.710Z,22.50
2022-09-17T11:56:48.700Z,22.50
2022-09-17T11:57:48.721Z,28.12
2022-09-17T11:58:48.712Z,22.50
2022-09-17T11:59:48.669Z,28.12
2022-09-17T12:00:48.697Z,22.50
2022-09-17T12:01:51.713Z,28.12
2022-09-17T12:02:51.757Z,28.12
2022-09-17T12:03:48.623Z,28.12
2022-09-17T12:04:48.633Z,22.50
2022-09-17T12:05:48.603Z,22.50
2022-09-17T12:06:48.583Z,16.88
2022-09-17T12:07:48.574Z,16.88
2022-09-17T12:08:48.604Z,11.25
2022-09-17T12:09:48.564Z,11.25
2022-09-17T12:10:48.564Z,11.25
2022-09-17T12:11:48.517Z,16.88
2022-09-17T12:12:50.331Z,16.88
2022-09-17T12:13:48.485Z,16.88
2022-09-17T12:14:48.476Z,11.25
2022-09-17T12:15:52.951Z,11.25
2022-09-17T12:16:49.555Z,11.25
2022-09-17T12:17:48.577Z,11.25
2022-09-17T12:18:48.428Z,16.88
2022-09-17T12:19:48.407Z,16.88
2022-09-17T12:20:48.387Z,16.88
2022-09-17T12:21:51.398Z,16.88
2022-09-17T12:22:51.390Z,11.25
2022-09-17T12:23:48.349Z,11.25
2022-09-17T12:24:48.358Z,11.25
2022-09-17T12:25:48.326Z,11.25
2022-09-17T12:26:48.341Z,11.25
2022-09-17T12:27:48.319Z,11.25
2022-09-17T12:28:48.278Z,11.25
2022-09-17T12:29:48.270Z,11.25
2022-09-17T12:30:48.252Z,11.25
2022-09-17T12:31:48.343Z,11.25
2022-09-17T12:32:48.290Z,11.25
2022-09-17T12:33:48.210Z,11.25
2022-09-17T12:34:48.201Z,16.88
2022-09-17T12:36:05.176Z,22.50
2022-09-17T12:36:49.172Z,22.50
2022-09-17T12:37:48.153Z,22.50
2022-09-17T12:38:48.188Z,22.50
2022-09-17T12:39:48.143Z,28.12
2022-09-17T12:40:48.124Z,22.50
2022-09-17T12:41:51.114Z,22.50
2022-09-17T12:42:51.116Z,22.50
2022-09-17T12:43:48.116Z,22.50
2022-09-17T12:44:48.068Z,22.50
2022-09-17T12:45:50.721Z,16.88
2022-09-17T12:46:48.105Z,16.88
2022-09-17T12:47:48.028Z,16.88
2022-09-17T12:48:48.166Z,16.88
2022-09-17T12:49:48.026Z,16.88
2022-09-17T12:50:48.037Z,16.88
2022-09-17T12:51:47.966Z,16.88
2022-09-17T12:52:47.957Z,16.88
2022-09-17T12:53:47.958Z,11.25
2022-09-17T12:54:47.998Z,11.25
2022-09-17T12:55:47.927Z,16.88
2022-09-17T12:56:47.908Z,16.88
2022-09-17T12:57:47.887Z,16.88
2022-09-17T12:58:47.880Z,16.88
2022-09-17T12:59:47.870Z,16.88
2022-09-17T13:00:47.925Z,16.88
2022-09-17T13:01:50.880Z,22.50
2022-09-17T13:02:50.858Z,28.12